createdAt,value
2018-05-10T00:01:43.767Z,16.70
2018-05-10T00:04:11.419Z,17.00
2018-05-10T00:06:39.834Z,16.90
2018-05-10T00:09:07.543Z,17.00
2018-05-10T00:11:35.208Z,16.60
2018-05-10T00:14:02.819Z,17.10
2018-05-10T00:16:30.464Z,16.80
2018-05-10T00:18:58.071Z,17.10
2018-05-10T00:21:25.956Z,17.10
2018-05-10T00:23:53.574Z,17.00
2018-05-10T00:26:21.220Z,16.70
2018-05-10T00:28:48.830Z,16.50
2018-05-10T00:31:17.256Z,17.00
2018-05-10T00:33:44.869Z,16.50
2018-05-10T00:36:12.475Z,16.80
2018-05-10T00:38:40.135Z,16.40
2018-05-10T00:41:07.747Z,16.50
2018-05-10T00:43:35.395Z,16.80
2018-05-10T00:46:03.047Z,16.40
2018-05-10T00:48:30.663Z,16.40
2018-05-10T00:50:58.275Z,16.50
2018-05-10T00:53:25.919Z,16.50
2018-05-10T00:55:53.563Z,16.40
2018-05-10T00:58:21.341Z,16.50
2018-05-10T01:00:49.002Z,16.40
2018-05-10T01:03:16.652Z,16.50
2018-05-10T01:05:44.300Z,16.40
2018-05-10T01:08:12.592Z,16.40
2018-05-10T01:10:40.239Z,16.50
2018-05-10T01:13:07.867Z,16.40
2018-05-10T01:15:36.284Z,16.30
2018-05-10T01:18:03.941Z,16.30
2018-05-10T01:20:31.828Z,16.20
2018-05-10T01:22:59.439Z,16.20
2018-05-10T01:25:27.083Z,16.30
2018-05-10T01:27:54.739Z,16.40
2018-05-10T01:30:22.395Z,15.90
2018-05-10T01:32:50.755Z,16.00
2018-05-10T01:35:30.259Z,15.80
2018-05-10T01:37:57.907Z,15.70
2018-05-10T01:40:25.877Z,15.70
2018-05-10T01:42:54.181Z,15.90
2018-05-10T01:45:21.796Z,15.80
2018-05-10T01:47:49.452Z,15.70
2018-05-10T01:50:17.828Z,15.70
2018-05-10T01:52:46.203Z,15.80
2018-05-10T01:55:14.615Z,15.80
2018-05-10T01:57:42.227Z,15.80
2018-05-10T02:00:09.871Z,15.70
2018-05-10T02:02:37.523Z,15.70
2018-05-10T02:05:05.132Z,15.70
2018-05-10T02:07:33.200Z,15.80
2018-05-10T02:10:00.855Z,15.70
2018-05-10T02:12:29.232Z,15.40
2018-05-10T02:14:57.643Z,15.20
2018-05-10T02:17:25.252Z,15.40
2018-05-10T02:19:52.899Z,15.70
2018-05-10T02:22:20.510Z,15.50
2018-05-10T02:24:48.840Z,15.70
2018-05-10T02:27:16.448Z,15.60
2018-05-10T02:29:44.172Z,15.30
2018-05-10T02:32:11.802Z,15.30
2018-05-10T02:34:39.453Z,15.20
2018-05-10T02:37:08.272Z,15.20
2018-05-10T02:39:38.872Z,15.20
2018-05-10T02:42:06.515Z,15.30
2018-05-10T02:44:34.159Z,15.20
2018-05-10T02:47:01.806Z,15.20
2018-05-10T02:49:29.420Z,15.20
2018-05-10T02:51:57.072Z,15.20
2018-05-10T02:54:24.724Z,15.20
2018-05-10T02:56:52.333Z,15.30
2018-05-10T02:59:20.749Z,15.10
2018-05-10T03:01:48.355Z,15.10
2018-05-10T03:04:15.999Z,15.20
2018-05-10T03:06:43.653Z,15.20
2018-05-10T03:09:11.300Z,15.00
2018-05-10T03:11:38.962Z,15.40
2018-05-10T03:14:06.576Z,15.60
2018-05-10T03:16:35.111Z,15.40
2018-05-10T03:19:02.719Z,15.20
2018-05-10T03:21:30.358Z,15.20
2018-05-10T03:23:57.979Z,15.10
2018-05-10T03:26:25.836Z,15.20
2018-05-10T03:28:53.456Z,15.00
2018-05-10T03:31:21.103Z,15.10
2018-05-10T03:33:48.748Z,15.10
2018-05-10T03:36:16.413Z,14.80
2018-05-10T03:38:44.030Z,15.20
2018-05-10T03:41:11.682Z,14.90
2018-05-10T03:43:39.343Z,15.00
2018-05-10T03:46:06.985Z,14.50
2018-05-10T03:48:35.855Z,14.80
2018-05-10T03:51:03.760Z,14.80
2018-05-10T03:53:31.419Z,15.20
2018-05-10T03:55:59.041Z,15.10
2018-05-10T03:58:26.695Z,15.00
2018-05-10T04:00:54.315Z,15.10
2018-05-10T04:06:34.220Z,15.20
2018-05-10T04:09:13.552Z,15.30
2018-05-10T04:11:41.175Z,15.10
2018-05-10T04:14:08.823Z,15.10
2018-05-10T04:16:36.475Z,15.10
2018-05-10T04:19:04.195Z,15.20
2018-05-10T04:21:31.847Z,15.10
2018-05-10T04:23:59.495Z,15.30
2018-05-10T04:26:27.150Z,15.30
2018-05-10T04:28:54.812Z,15.20
2018-05-10T04:31:22.591Z,15.30
2018-05-10T04:33:50.237Z,15.70
2018-05-10T04:36:17.856Z,15.50
2018-05-10T04:38:45.511Z,15.70
2018-05-10T04:41:13.162Z,15.90
2018-05-10T04:43:41.698Z,15.80
2018-05-10T04:46:09.469Z,15.90
2018-05-10T04:48:37.146Z,16.00
2018-05-10T04:51:04.805Z,16.80
2018-05-10T04:53:32.465Z,16.80
2018-05-10T04:56:02.215Z,16.80
2018-05-10T04:58:29.831Z,16.70
2018-05-10T05:00:57.498Z,16.40
2018-05-10T05:03:25.145Z,16.40
2018-05-10T05:05:53.610Z,17.20
2018-05-10T05:08:21.236Z,17.30
2018-05-10T05:10:48.879Z,17.50
2018-05-10T05:13:17.268Z,18.70
2018-05-10T05:15:47.846Z,18.50
2018-05-10T05:18:15.476Z,19.10
2018-05-10T05:20:43.127Z,19.30
2018-05-10T05:23:11.455Z,19.80
2018-05-10T05:25:39.100Z,20.40
2018-05-10T05:28:06.752Z,19.90
2018-05-10T05:30:34.804Z,20.20
2018-05-10T05:33:02.417Z,20.10
2018-05-10T05:35:30.044Z,21.10
2018-05-10T05:37:57.711Z,21.50
2018-05-10T05:40:25.360Z,21.60
2018-05-10T05:42:53.023Z,21.60
2018-05-10T05:45:22.258Z,21.30
2018-05-10T05:47:52.518Z,21.50
2018-05-10T05:50:20.133Z,21.50
2018-05-10T05:52:47.795Z,22.00
2018-05-10T05:55:15.403Z,22.30
2018-05-10T05:57:43.285Z,22.70
2018-05-10T06:00:10.905Z,22.00
2018-05-10T06:02:38.516Z,21.80
2018-05-10T06:05:06.179Z,21.60
2018-05-10T06:07:33.824Z,22.10
2018-05-10T06:10:01.711Z,21.60
2018-05-10T06:12:29.463Z,21.00
2018-05-10T06:14:57.317Z,20.50
2018-05-10T06:17:24.937Z,20.30
2018-05-10T06:19:52.607Z,19.70
2018-05-10T06:22:20.827Z,19.70
2018-05-10T06:24:48.613Z,19.20
2018-05-10T06:27:16.819Z,19.20
2018-05-10T06:29:48.435Z,19.30
2018-05-10T06:32:16.792Z,19.40
2018-05-10T06:34:44.655Z,19.50
2018-05-10T06:37:12.339Z,19.60
2018-05-10T06:39:41.398Z,19.00
2018-05-10T06:42:11.149Z,18.90
2018-05-10T06:44:42.374Z,19.20
2018-05-10T06:47:16.453Z,19.40
2018-05-10T06:49:44.964Z,19.50
2018-05-10T06:52:17.178Z,19.60
2018-05-10T06:54:45.087Z,19.80
2018-05-10T06:57:13.396Z,20.90
2018-05-10T06:59:41.031Z,21.10
2018-05-10T07:02:08.699Z,20.90
2018-05-10T07:04:36.892Z,21.50
2018-05-10T07:07:04.552Z,22.10
2018-05-10T07:09:33.087Z,21.60
2018-05-10T07:12:01.465Z,20.80
2018-05-10T07:14:29.079Z,21.10
2018-05-10T07:16:57.694Z,20.50
2018-05-10T07:19:25.377Z,20.80
2018-05-10T07:21:52.997Z,20.30
2018-05-10T07:24:20.636Z,20.50
2018-05-10T07:26:48.290Z,20.90
2018-05-10T07:29:16.149Z,21.50
2018-05-10T07:31:45.536Z,21.00
2018-05-10T07:34:17.991Z,22.00
2018-05-10T07:36:45.962Z,22.20
2018-05-10T07:39:13.736Z,22.20
2018-05-10T07:41:43.051Z,21.70
2018-05-10T07:44:10.811Z,22.20
2018-05-10T07:46:38.623Z,22.10
2018-05-10T07:49:06.295Z,22.20
2018-05-10T07:51:33.907Z,23.10
2018-05-10T07:54:01.564Z,23.20
2018-05-10T07:56:30.002Z,24.20
2018-05-10T07:58:57.675Z,24.10
2018-05-10T08:01:25.321Z,24.10
2018-05-10T08:03:53.572Z,23.90
2018-05-10T08:06:21.193Z,23.80
2018-05-10T08:08:49.822Z,23.20
2018-05-10T08:11:18.137Z,23.00
2018-05-10T08:13:45.792Z,23.00
2018-05-10T08:16:13.421Z,23.30
2018-05-10T08:18:41.090Z,23.60
2018-05-10T08:21:08.723Z,23.90
2018-05-10T08:23:48.309Z,23.60
2018-05-10T08:26:16.453Z,23.60
2018-05-10T08:28:46.075Z,23.50
2018-05-10T08:31:13.892Z,23.70
2018-05-10T08:33:42.439Z,23.50
2018-05-10T08:36:10.166Z,23.60
2018-05-10T08:38:40.070Z,23.90
2018-05-10T08:41:07.827Z,23.90
2018-05-10T08:43:35.476Z,23.90
2018-05-10T08:46:03.795Z,23.90
2018-05-10T08:48:31.476Z,23.90
2018-05-10T08:50:59.104Z,24.00
2018-05-10T08:53:26.770Z,24.20
2018-05-10T08:55:54.429Z,24.00
2018-05-10T08:58:22.059Z,23.90
2018-05-10T09:00:49.714Z,24.20
2018-05-10T09:03:18.103Z,24.30
2018-05-10T09:05:45.761Z,24.30
2018-05-10T09:08:14.283Z,24.30
2018-05-10T09:10:41.939Z,24.20
2018-05-10T09:13:10.109Z,24.50
2018-05-10T09:15:37.877Z,24.10
2018-05-10T09:18:20.231Z,24.00
2018-05-10T09:20:47.895Z,23.80
2018-05-10T09:23:16.301Z,23.90
2018-05-10T09:25:43.926Z,23.80
2018-05-10T09:28:12.345Z,23.50
2018-05-10T09:30:39.965Z,23.70
2018-05-10T09:33:07.619Z,23.40
2018-05-10T09:35:35.275Z,23.70
2018-05-10T09:38:03.667Z,23.90
2018-05-10T09:40:32.105Z,24.10
2018-05-10T09:42:59.737Z,24.00
2018-05-10T09:45:27.392Z,24.10
2018-05-10T09:47:55.095Z,23.90
2018-05-10T09:50:23.482Z,24.50
2018-05-10T09:52:52.719Z,24.80
2018-05-10T09:55:20.380Z,24.80
2018-05-10T09:57:48.044Z,25.00
2018-05-10T10:00:21.311Z,25.00
2018-05-10T10:02:48.995Z,24.90
2018-05-10T10:05:16.643Z,25.30
2018-05-10T10:07:44.314Z,25.40
2018-05-10T10:10:11.932Z,25.50
2018-05-10T10:12:39.567Z,25.30
2018-05-10T10:15:07.464Z,25.00
2018-05-10T10:17:35.952Z,25.30
2018-05-10T10:20:03.585Z,25.30
2018-05-10T10:22:31.212Z,25.80
2018-05-10T10:24:58.888Z,25.70
2018-05-10T10:27:26.528Z,25.30
2018-05-10T10:29:54.330Z,25.20
2018-05-10T10:32:24.762Z,25.10
2018-05-10T10:34:55.956Z,25.20
2018-05-10T10:37:24.558Z,25.20
2018-05-10T10:39:53.935Z,25.40
2018-05-10T10:42:23.372Z,25.70
2018-05-10T10:44:51.029Z,25.80
2018-05-10T10:47:18.916Z,25.90
2018-05-10T10:49:46.576Z,26.00
2018-05-10T10:52:14.193Z,26.10
2018-05-10T10:54:41.858Z,26.20
2018-05-10T10:57:09.515Z,26.10
2018-05-10T10:59:37.133Z,26.00
2018-05-10T11:02:05.565Z,25.40
2018-05-10T11:04:33.243Z,25.30
2018-05-10T11:07:01.474Z,25.50
2018-05-10T11:09:29.134Z,25.80
2018-05-10T11:11:56.802Z,25.70
2018-05-10T11:14:24.419Z,25.90
2018-05-10T11:16:52.042Z,25.90
2018-05-10T11:19:19.993Z,25.90
2018-05-10T11:21:47.606Z,25.90
2018-05-10T11:24:15.264Z,25.60
2018-05-10T11:26:44.391Z,25.80
2018-05-10T11:29:12.188Z,25.80
2018-05-10T11:31:39.804Z,26.00
2018-05-10T11:34:07.451Z,26.40
2018-05-10T11:36:35.067Z,26.60
2018-05-10T11:39:02.867Z,26.80
2018-05-10T11:41:31.240Z,26.70
2018-05-10T11:43:58.901Z,26.70
2018-05-10T11:46:26.551Z,26.70
2018-05-10T11:48:54.980Z,26.00
2018-05-10T11:51:23.199Z,26.00
2018-05-10T11:53:51.592Z,26.00
2018-05-10T11:56:19.218Z,26.30
2018-05-10T11:58:46.885Z,26.40
2018-05-10T12:01:15.584Z,26.40
2018-05-10T12:03:43.804Z,26.40
2018-05-10T12:06:12.709Z,26.60
2018-05-10T12:08:41.626Z,26.70
2018-05-10T12:11:09.683Z,26.90
2018-05-10T12:13:38.777Z,26.50
2018-05-10T12:16:07.369Z,26.60
2018-05-10T12:18:35.145Z,26.70
2018-05-10T12:21:02.763Z,26.80
2018-05-10T12:23:30.423Z,26.90
2018-05-10T12:25:58.108Z,26.90
2018-05-10T12:28:25.725Z,26.90
2018-05-10T12:30:53.382Z,26.80
2018-05-10T12:33:21.058Z,26.70
2018-05-10T12:35:48.675Z,26.50
2018-05-10T12:38:16.307Z,26.50
2018-05-10T12:40:43.972Z,26.70
2018-05-10T12:43:12.308Z,26.80
2018-05-10T12:45:41.246Z,27.00
2018-05-10T12:48:08.895Z,27.10
2018-05-10T12:50:37.023Z,27.10
2018-05-10T12:53:05.259Z,27.20
2018-05-10T12:55:32.915Z,27.10
2018-05-10T12:58:00.575Z,27.00
2018-05-10T13:00:28.231Z,26.70
2018-05-10T13:02:56.116Z,26.10
2018-05-10T13:05:24.567Z,25.00
2018-05-10T13:07:52.252Z,24.90
2018-05-10T13:10:20.195Z,24.30
2018-05-10T13:12:48.779Z,23.90
2018-05-10T13:15:16.395Z,23.50
2018-05-10T13:17:44.013Z,23.00
2018-05-10T13:20:11.677Z,23.00
2018-05-10T13:22:39.304Z,22.00
2018-05-10T13:25:06.955Z,21.80
2018-05-10T13:27:35.296Z,21.50
2018-05-10T13:30:02.973Z,21.00
2018-05-10T13:32:30.627Z,20.30
2018-05-10T13:34:59.068Z,19.80
2018-05-10T13:37:26.688Z,20.10
2018-05-10T13:39:54.885Z,19.50
2018-05-10T13:42:23.258Z,19.10
2018-05-10T13:44:50.871Z,19.00
2018-05-10T13:47:18.844Z,19.00
2018-05-10T13:49:46.463Z,18.70
2018-05-10T13:52:14.134Z,18.20
2018-05-10T13:54:42.014Z,18.40
2018-05-10T13:57:09.675Z,17.80
2018-05-10T13:59:37.338Z,18.10
2018-05-10T14:02:05.770Z,17.50
2018-05-10T14:04:33.464Z,17.70
2018-05-10T14:07:01.083Z,17.20
2018-05-10T14:09:28.710Z,16.90
2018-05-10T14:11:56.370Z,17.00
2018-05-10T14:14:25.116Z,16.80
2018-05-10T14:16:52.733Z,16.90
2018-05-10T14:19:20.452Z,16.40
2018-05-10T14:21:48.114Z,16.80
2018-05-10T14:24:16.541Z,16.60
2018-05-10T14:26:44.174Z,16.60
2018-05-10T14:29:12.596Z,16.10
2018-05-10T14:31:40.272Z,16.10
2018-05-10T14:34:08.112Z,16.10
2018-05-10T14:36:35.802Z,16.10
2018-05-10T14:39:03.442Z,16.20
2018-05-10T14:41:31.101Z,15.90
2018-05-10T14:43:58.759Z,15.90
2018-05-10T14:46:26.743Z,15.90
2018-05-10T14:48:54.703Z,15.90
2018-05-10T14:51:23.389Z,16.30
2018-05-10T14:53:51.519Z,15.90
2018-05-10T14:56:23.977Z,15.90
2018-05-10T14:58:56.853Z,15.90
2018-05-10T15:01:24.796Z,15.90
2018-05-10T15:03:52.419Z,15.70
2018-05-10T15:06:20.071Z,15.70
2018-05-10T15:08:47.726Z,15.70
2018-05-10T15:11:15.473Z,15.70
2018-05-10T15:13:43.675Z,15.90
2018-05-10T15:16:11.771Z,15.70
2018-05-10T15:18:39.424Z,15.60
2018-05-10T15:21:07.060Z,15.60
2018-05-10T15:23:34.905Z,15.80
2018-05-10T15:26:02.532Z,15.70
2018-05-10T15:28:30.205Z,15.70
2018-05-10T15:30:57.868Z,15.80
2018-05-10T15:33:25.533Z,15.70
2018-05-10T15:35:53.195Z,15.70
2018-05-10T15:38:20.904Z,15.90
2018-05-10T15:40:48.532Z,15.90
2018-05-10T15:43:16.956Z,15.80
2018-05-10T15:45:44.636Z,15.80
2018-05-10T15:48:12.345Z,15.90
2018-05-10T15:50:40.005Z,15.70
2018-05-10T15:53:07.903Z,15.70
2018-05-10T15:55:35.550Z,15.80
2018-05-10T15:58:04.785Z,15.30
2018-05-10T16:00:33.946Z,15.20
2018-05-10T16:03:02.407Z,14.70
2018-05-10T16:05:30.420Z,15.10
2018-05-10T16:07:58.542Z,15.30
2018-05-10T16:10:27.354Z,15.20
2018-05-10T16:12:56.803Z,15.20
2018-05-10T16:15:24.778Z,15.20
2018-05-10T16:17:52.400Z,15.10
2018-05-10T16:20:20.067Z,14.80
2018-05-10T16:22:48.140Z,14.70
2018-05-10T16:25:15.800Z,14.90
2018-05-10T16:27:44.124Z,15.10
2018-05-10T16:30:13.730Z,14.90
2018-05-10T16:32:43.889Z,15.10
2018-05-10T16:35:11.650Z,14.80
2018-05-10T16:37:39.335Z,15.00
2018-05-10T16:40:06.951Z,14.80
2018-05-10T16:42:34.620Z,14.60
2018-05-10T16:45:03.011Z,14.70
2018-05-10T16:47:35.470Z,14.30
2018-05-10T16:50:04.190Z,14.30
2018-05-10T16:52:31.835Z,14.30
2018-05-10T16:54:59.475Z,14.00
2018-05-10T16:57:28.273Z,14.30
2018-05-10T17:00:00.076Z,14.30
2018-05-10T17:02:27.881Z,14.20
2018-05-10T17:04:57.820Z,14.10
2018-05-10T17:07:26.409Z,14.20
2018-05-10T17:09:54.056Z,14.20
2018-05-10T17:12:22.439Z,14.10
2018-05-10T17:14:50.566Z,14.00
2018-05-10T17:17:18.366Z,14.20
2018-05-10T17:19:47.227Z,13.90
2018-05-10T17:22:15.602Z,14.00
2018-05-10T17:24:43.624Z,13.90
2018-05-10T17:27:11.570Z,14.20
2018-05-10T17:29:40.775Z,13.60
2018-05-10T17:32:08.438Z,13.80
2018-05-10T17:34:36.392Z,13.50
2018-05-10T17:37:06.650Z,13.70
2018-05-10T17:39:34.704Z,13.70
2018-05-10T17:42:04.149Z,13.50
2018-05-10T17:44:36.157Z,13.70
2018-05-10T17:47:05.352Z,13.50
2018-05-10T17:49:33.719Z,13.50
2018-05-10T17:52:01.763Z,13.70
2018-05-10T17:54:33.277Z,13.70
2018-05-10T17:57:02.227Z,13.60
2018-05-10T17:59:31.399Z,13.70
2018-05-10T18:01:59.330Z,13.50
2018-05-10T18:04:27.368Z,13.40
2018-05-10T18:06:58.886Z,13.60
2018-05-10T18:09:26.860Z,13.70
2018-05-10T18:11:54.472Z,13.70
2018-05-10T18:14:25.160Z,13.20
2018-05-10T18:16:53.043Z,13.50
2018-05-10T18:19:20.863Z,13.80
2018-05-10T18:21:49.092Z,13.80
2018-05-10T18:24:18.447Z,13.40
2018-05-10T18:26:46.060Z,13.40
2018-05-10T18:29:14.787Z,13.40
2018-05-10T18:31:42.400Z,13.30
2018-05-10T18:34:10.007Z,13.60
2018-05-10T18:36:39.340Z,13.40
2018-05-10T18:39:06.999Z,13.40
2018-05-10T18:41:37.402Z,13.50
2018-05-10T18:44:05.339Z,13.20
2018-05-10T18:46:33.833Z,13.10
2018-05-10T18:49:02.460Z,13.30
2018-05-10T18:51:32.676Z,13.40
2018-05-10T18:54:00.901Z,13.50
2018-05-10T18:56:29.798Z,13.60
2018-05-10T18:58:59.651Z,13.30
2018-05-10T19:01:27.327Z,13.40
2018-05-10T19:03:55.176Z,13.10
2018-05-10T19:06:25.588Z,13.20
2018-05-10T19:08:53.281Z,13.00
2018-05-10T19:11:22.012Z,13.10
2018-05-10T19:13:51.727Z,12.90
2018-05-10T19:16:19.536Z,13.00
2018-05-10T19:18:47.179Z,13.10
2018-05-10T19:21:17.739Z,13.20
2018-05-10T19:23:45.399Z,12.80
2018-05-10T19:26:13.069Z,13.00
2018-05-10T19:28:41.452Z,13.30
2018-05-10T19:31:09.123Z,13.20
2018-05-10T19:33:37.778Z,13.10
2018-05-10T19:36:05.399Z,13.00
2018-05-10T19:38:33.823Z,12.90
2018-05-10T19:41:01.448Z,13.00
2018-05-10T19:43:29.154Z,13.10
2018-05-10T19:45:58.736Z,12.90
2018-05-10T19:48:26.396Z,13.00
2018-05-10T19:50:56.295Z,12.40
2018-05-10T19:53:25.789Z,12.90
2018-05-10T19:55:53.451Z,13.00
2018-05-10T19:58:21.116Z,12.90
2018-05-10T20:00:48.727Z,13.00
2018-05-10T20:03:18.840Z,13.00
2018-05-10T20:05:47.428Z,12.70
2018-05-10T20:08:15.583Z,13.00
2018-05-10T20:10:43.581Z,12.90
2018-05-10T20:13:15.396Z,13.10
2018-05-10T20:15:47.718Z,12.90
2018-05-10T20:18:20.138Z,12.80
2018-05-10T20:20:50.435Z,12.50
2018-05-10T20:23:22.876Z,12.50
2018-05-10T20:25:54.696Z,12.50
2018-05-10T20:28:23.172Z,12.50
2018-05-10T20:30:50.813Z,13.00
2018-05-10T20:33:18.464Z,12.50
2018-05-10T20:35:48.036Z,12.40
2018-05-10T20:38:17.460Z,12.50
2018-05-10T20:40:45.119Z,12.60
2018-05-10T20:43:15.210Z,12.50
2018-05-10T20:45:46.058Z,12.60
2018-05-10T20:48:14.252Z,12.50
2018-05-10T20:50:47.548Z,12.80
2018-05-10T20:53:15.247Z,12.60
2018-05-10T20:55:45.891Z,12.60
2018-05-10T20:58:17.437Z,12.50
2018-05-10T21:00:47.005Z,12.40
2018-05-10T21:03:14.975Z,12.50
2018-05-10T21:05:42.629Z,12.60
2018-05-10T21:08:10.278Z,12.40
2018-05-10T21:10:39.593Z,12.50
2018-05-10T21:13:07.259Z,12.60
2018-05-10T21:15:34.883Z,12.70
2018-05-10T21:18:02.497Z,12.50
2018-05-10T21:20:31.058Z,12.50
2018-05-10T21:22:58.728Z,12.60
2018-05-10T21:25:27.093Z,12.40
2018-05-10T21:27:54.712Z,12.50
2018-05-10T21:30:22.363Z,12.50
2018-05-10T21:32:50.935Z,12.50
2018-05-10T21:35:19.840Z,12.20
2018-05-10T21:37:47.673Z,12.60
2018-05-10T21:40:16.051Z,12.50
2018-05-10T21:42:43.740Z,12.50
2018-05-10T21:45:11.631Z,12.50
2018-05-10T21:47:39.248Z,12.50
2018-05-10T21:50:06.912Z,12.40
2018-05-10T21:52:35.305Z,12.40
2018-05-10T21:55:03.991Z,12.50
2018-05-10T21:57:31.676Z,12.40
2018-05-10T21:59:59.332Z,12.40
2018-05-10T22:02:27.013Z,12.40
2018-05-10T22:04:54.670Z,12.40
2018-05-10T22:07:22.524Z,12.50
2018-05-10T22:09:50.143Z,12.60
2018-05-10T22:12:17.974Z,12.60
2018-05-10T22:14:46.058Z,12.30
2018-05-10T22:17:13.708Z,12.50
2018-05-10T22:19:41.323Z,12.30
2018-05-10T22:22:09.000Z,12.10
2018-05-10T22:24:36.880Z,12.40
2018-05-10T22:27:05.795Z,12.40
2018-05-10T22:29:34.231Z,12.30
2018-05-10T22:32:01.855Z,12.50
2018-05-10T22:34:29.695Z,12.30
2018-05-10T22:36:57.533Z,12.40
2018-05-10T22:39:25.196Z,12.70
2018-05-10T22:41:52.851Z,12.70
2018-05-10T22:44:20.496Z,12.50
2018-05-10T22:46:48.197Z,12.50
2018-05-10T22:49:15.851Z,12.60
2018-05-10T22:51:43.528Z,12.50
2018-05-10T22:54:11.140Z,12.50
2018-05-10T22:56:38.760Z,12.50
2018-05-10T22:59:06.480Z,12.40
2018-05-10T23:01:34.136Z,12.60
2018-05-10T23:04:02.005Z,12.40
2018-05-10T23:06:29.666Z,12.60
2018-05-10T23:08:57.291Z,12.30
2018-05-10T23:11:24.943Z,12.50
2018-05-10T23:13:53.319Z,12.20
2018-05-10T23:16:21.739Z,12.20
2018-05-10T23:18:49.352Z,12.20
2018-05-10T23:21:17.003Z,12.30
2018-05-10T23:23:44.624Z,12.40
2018-05-10T23:26:12.488Z,11.90
2018-05-10T23:28:40.128Z,12.30
2018-05-10T23:31:07.783Z,12.50
2018-05-10T23:33:35.440Z,12.50
2018-05-10T23:36:03.099Z,12.40
2018-05-10T23:38:30.724Z,12.20
2018-05-10T23:40:58.376Z,12.30
2018-05-10T23:43:25.987Z,12.20
2018-05-10T23:45:53.652Z,12.10
2018-05-10T23:48:21.316Z,12.10
2018-05-10T23:50:48.967Z,12.50
2018-05-10T23:53:16.625Z,12.10
2018-05-10T23:55:44.271Z,12.20
2018-05-10T23:58:12.404Z,11.90
